SBAR

Details ICAO SBAR (AJU)
Name SANTA MARIA
Region Brazil
Timezone America/Maceio (UTC-3.0)
Plans Departing 43
Arriving 34
Stats Elevation 23 ft / 7 m (AMSL)
Location -10.984000° -37.070333°
Runways 1
Magnetic Variation 23.050° W
Sunrise 2017-12-12 08:00:48 UTC / 2017-12-12 05:00:48 Local
Sunset 2017-12-12 20:46:11 UTC / 2017-12-12 17:46:11 Local
Advertisement - Login to hide

Runways

ID Width Length Bearing (true) Bearing (mag) Surface Threshold Offset Overrun Length
11 148 ft / 45 m 7,228 ft / 2,203 m 91.93° 114.98° Asphalt 0 ft / 0 m 200 ft / 61 m
29 148 ft / 45 m 7,228 ft / 2,203 m 271.92° 294.97° Asphalt 0 ft / 0 m 200 ft / 61 m

Map

Weather


0- 5 10 15 20 25 30 35+ Temperature / ° C

Clouds and Precipitation
Forecast for 2017-12-13 06:00 UTC. Updated an hour ago

Ground ~20,000 ft ~40,000 ft Winds

METAR

SBAR 130200Z 07010KT 9999 FEW017 25/23 Q1012

TAF

TAF SBAR 122200Z 1300/1312 05006KT 8000 SCT017 TN24/1307Z TX26/1311Z RMK PEA

Frequencies

Approach 120.30 MHz ARACAJU APP
Warning: Do not use this data for real-world aviation or navigation. No guarantee of current accuracy is given.